createdAt,value
2018-02-10T00:01:24.519Z,15.95
2018-02-10T00:03:52.847Z,16.45
2018-02-10T00:06:22.044Z,19.40
2018-02-10T00:08:50.343Z,19.80
2018-02-10T00:11:19.419Z,17.45
2018-02-10T00:13:47.776Z,18.50
2018-02-10T00:16:16.068Z,17.45
2018-02-10T00:18:44.516Z,16.00
2018-02-10T00:21:12.829Z,20.05
2018-02-10T00:23:41.895Z,17.60
2018-02-10T00:26:10.328Z,19.55
2018-02-10T00:28:38.648Z,18.30
2018-02-10T00:31:06.948Z,16.25
2018-02-10T00:33:35.276Z,18.15
2018-02-10T00:36:03.576Z,16.73
2018-02-10T00:38:32.673Z,17.10
2018-02-10T00:41:00.970Z,17.35
2018-02-10T00:43:29.316Z,17.08
2018-02-10T00:45:57.628Z,16.62
2018-02-10T00:48:25.923Z,17.98
2018-02-10T00:50:55.109Z,17.98
2018-02-10T00:53:23.396Z,17.70
2018-02-10T00:55:51.737Z,17.00
2018-02-10T00:58:20.813Z,17.15
2018-02-10T01:00:49.152Z,19.08
2018-02-10T01:03:17.473Z,18.52
2018-02-10T01:05:45.776Z,19.42
2018-02-10T01:08:14.373Z,18.00
2018-02-10T01:10:42.680Z,15.05
2018-02-10T01:13:11.015Z,18.50
2018-02-10T01:15:40.132Z,15.90
2018-02-10T01:18:08.475Z,17.85
2018-02-10T01:20:37.081Z,18.62
2018-02-10T01:23:06.147Z,16.45
2018-02-10T01:25:34.471Z,18.80
2018-02-10T01:28:02.815Z,19.50
2018-02-10T01:30:31.135Z,20.88
2018-02-10T01:32:59.472Z,18.65
2018-02-10T01:35:27.779Z,18.67
2018-02-10T01:37:56.116Z,20.27
2018-02-10T01:40:24.421Z,16.60
2018-02-10T01:42:53.740Z,23.17
2018-02-10T01:45:22.801Z,20.75
2018-02-10T01:47:51.115Z,19.58
2018-02-10T01:50:22.291Z,18.10
2018-02-10T01:52:51.363Z,20.80
2018-02-10T01:55:19.716Z,18.90
2018-02-10T01:57:48.796Z,18.27
2018-02-10T02:00:17.888Z,18.42
2018-02-10T02:02:46.212Z,17.33
2018-02-10T02:05:14.550Z,18.12
2018-02-10T02:07:43.166Z,16.73
2018-02-10T02:10:11.468Z,18.42
2018-02-10T02:12:39.772Z,16.52
2018-02-10T02:15:08.867Z,16.42
2018-02-10T02:17:37.966Z,18.73
2018-02-10T02:20:06.280Z,19.12
2018-02-10T02:22:35.341Z,14.30
2018-02-10T02:25:03.663Z,17.90
2018-02-10T02:27:32.729Z,19.40
2018-02-10T02:30:01.308Z,18.30
2018-02-10T02:32:29.605Z,17.45
2018-02-10T02:34:57.957Z,17.67
2018-02-10T02:37:27.069Z,16.77
2018-02-10T02:39:56.124Z,17.42
2018-02-10T02:42:24.429Z,17.27
2018-02-10T02:44:52.752Z,17.70
2018-02-10T02:47:21.813Z,18.17
2018-02-10T02:49:50.153Z,18.92
2018-02-10T02:52:18.482Z,18.58
2018-02-10T02:54:46.788Z,16.98
2018-02-10T02:57:15.113Z,20.62
2018-02-10T02:59:44.188Z,19.60
2018-02-10T03:02:12.517Z,19.00
2018-02-10T03:04:41.600Z,19.37
2018-02-10T03:07:09.988Z,14.75
2018-02-10T03:09:38.308Z,19.62
2018-02-10T03:12:07.416Z,18.80
2018-02-10T03:14:36.488Z,19.25
2018-02-10T03:17:04.785Z,18.75
2018-02-10T03:19:33.435Z,22.83
2018-02-10T03:22:01.737Z,18.42
2018-02-10T03:24:30.065Z,18.37
2018-02-10T03:26:58.384Z,19.95
2018-02-10T03:29:27.482Z,18.50
2018-02-10T03:31:55.773Z,16.27
2018-02-10T03:34:24.860Z,16.70
2018-02-10T03:36:53.200Z,18.30
2018-02-10T03:39:22.289Z,19.25
2018-02-10T03:41:51.373Z,19.65
2018-02-10T03:44:19.756Z,18.45
2018-02-10T03:46:48.095Z,18.25
2018-02-10T03:49:16.417Z,18.98
2018-02-10T03:51:44.709Z,19.90
2018-02-10T03:54:13.042Z,17.85
2018-02-10T03:56:42.091Z,18.77
2018-02-10T03:59:10.429Z,19.80
2018-02-10T04:01:39.509Z,19.77
2018-02-10T04:04:07.819Z,18.10
2018-02-10T04:06:36.161Z,17.42
2018-02-10T04:09:04.456Z,17.40
2018-02-10T04:11:32.756Z,17.58
2018-02-10T04:14:01.156Z,18.40
2018-02-10T04:16:29.551Z,16.83
2018-02-10T04:18:57.855Z,22.45
2018-02-10T04:21:26.198Z,19.05
2018-02-10T04:23:54.496Z,18.87
2018-02-10T04:26:22.824Z,17.00
2018-02-10T04:28:51.120Z,18.75
2018-02-10T04:31:19.452Z,17.77
2018-02-10T04:33:47.759Z,19.23
2018-02-10T04:36:16.095Z,17.90
2018-02-10T04:38:44.384Z,22.33
2018-02-10T04:41:12.685Z,21.05
2018-02-10T04:43:41.057Z,18.37
2018-02-10T04:46:09.372Z,15.13
2018-02-10T04:48:37.699Z,16.37
2018-02-10T04:51:06.008Z,17.15
2018-02-10T04:53:34.355Z,19.92
2018-02-10T04:56:03.429Z,19.83
2018-02-10T04:58:31.797Z,19.80
2018-02-10T05:01:00.098Z,18.98
2018-02-10T05:03:28.432Z,20.20
2018-02-10T05:05:57.510Z,19.37
2018-02-10T05:08:25.840Z,20.60
2018-02-10T05:10:54.176Z,21.12
2018-02-10T05:13:22.541Z,18.50
2018-02-10T05:15:50.846Z,20.52
2018-02-10T05:18:19.165Z,21.27
2018-02-10T05:20:47.495Z,20.52
2018-02-10T05:23:15.841Z,18.12
2018-02-10T05:25:44.155Z,20.88
2018-02-10T05:28:13.251Z,22.02
2018-02-10T05:30:41.548Z,20.30
2018-02-10T05:33:09.881Z,19.95
2018-02-10T05:35:38.194Z,20.25
2018-02-10T05:38:06.495Z,20.50
2018-02-10T05:40:34.868Z,18.12
2018-02-10T05:43:03.164Z,21.10
2018-02-10T05:45:31.500Z,22.85
2018-02-10T05:48:00.562Z,19.50
2018-02-10T05:50:28.889Z,20.48
2018-02-10T05:52:57.201Z,21.52
2018-02-10T05:55:25.525Z,21.12
2018-02-10T05:57:53.818Z,19.05
2018-02-10T06:00:22.173Z,18.77
2018-02-10T06:02:50.485Z,18.60
2018-02-10T06:05:18.855Z,22.77
2018-02-10T06:07:47.152Z,17.42
2018-02-10T06:10:15.499Z,20.52
2018-02-10T06:12:43.796Z,18.62
2018-02-10T06:15:12.129Z,19.20
2018-02-10T06:17:40.465Z,18.98
2018-02-10T06:20:08.800Z,20.05
2018-02-10T06:22:37.412Z,23.65
2018-02-10T06:25:05.758Z,16.95
2018-02-10T06:27:34.836Z,19.35
2018-02-10T06:30:03.189Z,19.30
2018-02-10T06:32:31.518Z,20.00
2018-02-10T06:35:00.103Z,17.40
2018-02-10T06:37:28.399Z,18.83
2018-02-10T06:39:56.749Z,17.77
2018-02-10T06:42:25.044Z,18.65
2018-02-10T06:44:53.379Z,18.77
2018-02-10T06:47:21.680Z,20.77
2018-02-10T06:49:50.010Z,18.65
2018-02-10T06:52:18.435Z,18.08
2018-02-10T06:54:46.769Z,17.67
2018-02-10T06:57:15.840Z,19.33
2018-02-10T06:59:44.160Z,18.45
2018-02-10T07:02:12.472Z,20.77
2018-02-10T07:04:41.582Z,19.35
2018-02-10T07:07:10.741Z,15.63
2018-02-10T07:09:39.039Z,17.67
2018-02-10T07:12:07.364Z,19.12
2018-02-10T07:14:36.439Z,16.87
2018-02-10T07:17:04.776Z,17.85
2018-02-10T07:19:33.078Z,18.62
2018-02-10T07:22:01.414Z,20.37
2018-02-10T07:24:29.796Z,18.90
2018-02-10T07:26:58.126Z,20.50
2018-02-10T07:29:26.436Z,20.67
2018-02-10T07:31:54.784Z,17.33
2018-02-10T07:34:23.183Z,18.00
2018-02-10T07:36:52.288Z,18.58
2018-02-10T07:39:20.585Z,17.55
2018-02-10T07:41:49.724Z,16.73
2018-02-10T07:44:18.019Z,18.05
2018-02-10T07:46:46.383Z,18.80
2018-02-10T07:49:15.453Z,17.02
2018-02-10T07:51:43.784Z,18.23
2018-02-10T07:54:12.848Z,19.75
2018-02-10T07:56:41.149Z,19.52
2018-02-10T07:59:09.475Z,18.15
2018-02-10T08:01:38.539Z,16.20
2018-02-10T08:04:06.900Z,16.98
2018-02-10T08:06:35.305Z,17.33
2018-02-10T08:09:03.658Z,19.58
2018-02-10T08:11:32.000Z,17.87
2018-02-10T08:14:00.357Z,17.77
2018-02-10T08:16:28.668Z,18.02
2018-02-10T08:18:56.999Z,18.98
2018-02-10T08:21:25.302Z,17.17
2018-02-10T08:23:54.402Z,18.60
2018-02-10T08:26:22.721Z,18.52
2018-02-10T08:28:51.077Z,17.17
2018-02-10T08:31:19.386Z,18.67
2018-02-10T08:33:48.485Z,18.60
2018-02-10T08:36:17.562Z,16.67
2018-02-10T08:38:45.908Z,16.40
2018-02-10T08:41:14.232Z,15.70
2018-02-10T08:43:42.574Z,18.77
2018-02-10T08:46:10.884Z,19.00
2018-02-10T08:48:39.311Z,15.20
2018-02-10T08:51:07.618Z,16.60
2018-02-10T08:53:35.943Z,18.17
2018-02-10T08:56:05.043Z,16.98
2018-02-10T08:58:34.120Z,15.85
2018-02-10T09:01:02.479Z,16.20
2018-02-10T09:03:30.823Z,15.75
2018-02-10T09:05:59.942Z,16.17
2018-02-10T09:08:29.016Z,14.38
2018-02-10T09:10:57.409Z,16.77
2018-02-10T09:13:25.713Z,15.35
2018-02-10T09:15:54.111Z,16.15
2018-02-10T09:18:23.191Z,15.43
2018-02-10T09:20:51.489Z,15.82
2018-02-10T09:23:19.822Z,16.17
2018-02-10T09:25:48.132Z,16.08
2018-02-10T09:28:16.464Z,15.70
2018-02-10T09:30:44.771Z,18.00
2018-02-10T09:33:13.916Z,15.55
2018-02-10T09:35:42.222Z,14.47
2018-02-10T09:38:10.549Z,13.52
2018-02-10T09:40:38.951Z,12.52
2018-02-10T09:43:08.050Z,14.45
2018-02-10T09:45:36.367Z,14.38
2018-02-10T09:48:05.427Z,14.73
2018-02-10T09:50:33.799Z,15.07
2018-02-10T09:53:02.154Z,13.10
2018-02-10T09:55:30.495Z,14.93
2018-02-10T09:57:58.863Z,14.50
2018-02-10T10:00:27.156Z,16.80
2018-02-10T10:02:55.492Z,13.53
2018-02-10T10:05:23.811Z,12.55
2018-02-10T10:07:52.877Z,15.63
2018-02-10T10:10:21.241Z,13.73
2018-02-10T10:12:49.533Z,12.27
2018-02-10T10:15:17.870Z,14.27
2018-02-10T10:17:46.972Z,13.97
2018-02-10T10:20:16.056Z,14.73
2018-02-10T10:22:44.383Z,15.47
2018-02-10T10:25:13.488Z,13.53
2018-02-10T10:27:41.815Z,14.53
2018-02-10T10:30:10.188Z,14.53
2018-02-10T10:32:38.546Z,12.80
2018-02-10T10:35:07.655Z,13.53
2018-02-10T10:37:36.041Z,13.43
2018-02-10T10:40:04.374Z,14.65
2018-02-10T10:42:32.674Z,14.20
2018-02-10T10:45:01.246Z,11.90
2018-02-10T10:47:32.708Z,12.17
2018-02-10T10:50:01.176Z,13.43
2018-02-10T10:52:29.578Z,13.35
2018-02-10T10:54:59.194Z,14.43
2018-02-10T10:57:28.523Z,13.10
2018-02-10T10:59:56.815Z,11.60
2018-02-10T11:02:26.167Z,12.02
2018-02-10T11:04:55.391Z,11.60
2018-02-10T11:07:23.812Z,11.63
2018-02-10T11:09:52.140Z,14.27
2018-02-10T11:12:20.576Z,16.00
2018-02-10T11:14:48.893Z,11.73
2018-02-10T11:17:17.285Z,15.45
2018-02-10T11:19:45.676Z,17.10
2018-02-10T11:22:14.311Z,13.20
2018-02-10T11:24:42.672Z,12.80
2018-02-10T11:27:13.141Z,11.35
2018-02-10T11:29:42.251Z,12.10
2018-02-10T11:32:10.671Z,12.63
2018-02-10T11:34:39.000Z,13.13
2018-02-10T11:37:07.350Z,12.30
2018-02-10T11:39:35.924Z,13.00
2018-02-10T11:42:05.973Z,10.93
2018-02-10T11:44:34.306Z,13.73
2018-02-10T11:47:02.770Z,11.00
2018-02-10T11:49:31.136Z,12.93
2018-02-10T11:52:10.342Z,12.00
2018-02-10T11:54:38.663Z,12.20
2018-02-10T11:57:07.730Z,12.07
2018-02-10T11:59:36.714Z,11.50
2018-02-10T12:02:09.511Z,9.60
2018-02-10T12:04:37.961Z,10.97
2018-02-10T12:07:06.418Z,11.10
2018-02-10T12:09:34.961Z,11.50
2018-02-10T12:12:03.273Z,11.70
2018-02-10T12:14:31.594Z,11.47
2018-02-10T12:16:59.926Z,11.50
2018-02-10T12:19:28.440Z,13.23
2018-02-10T12:21:56.766Z,10.70
2018-02-10T12:24:25.057Z,9.40
2018-02-10T12:26:53.403Z,11.80
2018-02-10T12:29:21.684Z,11.20
2018-02-10T12:31:50.079Z,10.13
2018-02-10T12:34:33.709Z,9.40
2018-02-10T12:37:02.824Z,11.00
2018-02-10T12:39:31.114Z,11.87
2018-02-10T12:41:59.448Z,9.97
2018-02-10T12:44:27.769Z,11.47
2018-02-10T12:46:56.145Z,11.20
2018-02-10T12:49:29.832Z,10.20
2018-02-10T12:51:58.190Z,12.47
2018-02-10T12:54:26.510Z,10.50
2018-02-10T12:56:54.848Z,10.87
2018-02-10T12:59:23.143Z,10.27
2018-02-10T13:01:51.507Z,11.20
2018-02-10T13:04:21.769Z,11.70
2018-02-10T13:06:50.881Z,11.40
2018-02-10T13:09:20.144Z,10.10
2018-02-10T13:11:48.491Z,12.10
2018-02-10T13:14:16.835Z,10.02
2018-02-10T13:16:45.136Z,10.97
2018-02-10T13:19:13.482Z,11.33
2018-02-10T13:21:41.874Z,9.93
2018-02-10T13:24:10.261Z,8.40
2018-02-10T13:26:38.684Z,8.90
2018-02-10T13:29:07.183Z,10.30
2018-02-10T13:31:35.515Z,11.13
2018-02-10T13:34:05.843Z,9.20
2018-02-10T13:36:34.970Z,8.03
2018-02-10T13:39:03.357Z,7.47
2018-02-10T13:41:32.584Z,9.17
2018-02-10T13:44:00.920Z,8.87
2018-02-10T13:46:29.250Z,7.17
2018-02-10T13:48:57.658Z,8.30
2018-02-10T13:51:25.994Z,7.80
2018-02-10T13:54:07.059Z,8.10
2018-02-10T13:56:35.439Z,7.93
2018-02-10T13:59:03.781Z,6.80
2018-02-10T14:01:32.077Z,8.30
2018-02-10T14:04:00.400Z,6.03
2018-02-10T14:06:29.718Z,6.57
2018-02-10T14:08:58.092Z,7.97
2018-02-10T14:11:26.776Z,7.87
2018-02-10T14:13:58.191Z,7.90
2018-02-10T14:16:26.512Z,6.83
2018-02-10T14:18:55.608Z,5.67
2018-02-10T14:21:25.325Z,6.00
2018-02-10T14:23:53.691Z,7.00
2018-02-10T14:26:22.088Z,5.57
2018-02-10T14:28:50.436Z,6.00
2018-02-10T14:31:18.842Z,5.80
2018-02-10T14:33:47.242Z,5.93
2018-02-10T14:36:23.673Z,5.93
2018-02-10T14:38:52.027Z,5.00
2018-02-10T14:41:20.315Z,4.40
2018-02-10T14:43:48.664Z,6.20
2018-02-10T14:46:16.982Z,5.67
2018-02-10T14:48:45.382Z,4.30
2018-02-10T14:51:13.769Z,5.10
2018-02-10T14:53:44.116Z,5.33
2018-02-10T14:56:12.523Z,5.70
2018-02-10T14:58:40.885Z,4.80
2018-02-10T15:01:09.223Z,5.60
2018-02-10T15:03:37.591Z,6.43
2018-02-10T15:06:05.908Z,4.97
2018-02-10T15:08:36.731Z,6.07
2018-02-10T15:11:05.898Z,6.00
2018-02-10T15:13:34.323Z,4.77
2018-02-10T15:16:03.144Z,5.70
2018-02-10T15:18:32.560Z,5.80
2018-02-10T15:21:00.879Z,4.47
2018-02-10T15:23:29.211Z,5.27
2018-02-10T15:25:57.611Z,5.00
2018-02-10T15:28:26.049Z,5.57
2018-02-10T15:31:12.155Z,5.93
2018-02-10T16:30:39.922Z,4.30
2018-02-10T16:33:08.210Z,5.80
2018-02-10T16:35:39.296Z,4.97
2018-02-10T16:38:08.465Z,6.37
2018-02-10T16:40:37.613Z,5.30
2018-02-10T16:43:06.223Z,8.67
2018-02-10T16:45:34.598Z,8.20
2018-02-10T16:48:08.456Z,7.37
2018-02-10T16:50:36.758Z,5.23
2018-02-10T16:53:05.060Z,5.90
2018-02-10T16:55:33.412Z,6.10
2018-02-10T16:58:14.519Z,6.67
2018-02-10T17:00:42.827Z,6.30
2018-02-10T17:03:13.936Z,4.25
2018-02-10T17:05:42.423Z,7.10
2018-02-10T17:08:11.100Z,6.90
2018-02-10T17:10:39.386Z,8.52
2018-02-10T17:13:14.089Z,8.25
2018-02-10T17:15:42.387Z,6.50
2018-02-10T17:18:10.818Z,7.37
2018-02-10T17:21:12.822Z,8.77
2018-02-10T17:23:43.968Z,6.20
2018-02-10T17:26:15.749Z,8.40
2018-02-10T17:28:44.104Z,8.13
2018-02-10T17:31:12.423Z,7.57
2018-02-10T17:33:40.780Z,7.40
2018-02-10T17:36:10.038Z,8.20
2018-02-10T17:38:38.852Z,8.43
2018-02-10T17:41:07.268Z,8.33
2018-02-10T17:43:35.614Z,7.07
2018-02-10T17:46:03.966Z,7.87
2018-02-10T17:48:32.265Z,9.55
2018-02-10T17:51:00.603Z,8.60
2018-02-10T17:53:44.146Z,9.93
2018-02-10T17:56:12.474Z,8.40
2018-02-10T17:58:40.787Z,8.77
2018-02-10T18:01:09.118Z,9.80
2018-02-10T18:03:37.587Z,8.90
2018-02-10T18:06:05.920Z,8.60
2018-02-10T18:08:34.302Z,10.13
2018-02-10T18:11:02.662Z,8.10
2018-02-10T18:13:30.943Z,9.90
2018-02-10T18:15:59.258Z,9.73
2018-02-10T18:18:27.557Z,9.33
2018-02-10T18:27:30.085Z,7.80
2018-02-10T18:30:04.111Z,10.30
2018-02-10T18:32:32.523Z,9.65
2018-02-10T18:35:01.831Z,9.43
2018-02-10T18:37:31.142Z,11.50
2018-02-10T18:39:59.478Z,9.80
2018-02-10T18:42:29.562Z,9.83
2018-02-10T18:44:58.226Z,10.18
2018-02-10T18:47:27.709Z,10.10
2018-02-10T18:49:56.119Z,10.60
2018-02-10T18:52:43.805Z,14.90
2018-02-10T18:55:12.123Z,11.55
2018-02-10T18:57:40.590Z,11.20
2018-02-10T19:00:08.906Z,10.77
2018-02-10T19:02:42.153Z,9.80
2018-02-10T19:05:15.868Z,10.67
2018-02-10T19:23:24.045Z,9.85
2018-02-10T19:26:04.404Z,10.83
2018-02-10T19:28:32.789Z,10.15
2018-02-10T19:31:01.201Z,18.35
2018-02-10T19:33:29.571Z,10.02
2018-02-10T19:35:57.924Z,10.90
2018-02-10T19:38:26.256Z,9.33
2018-02-10T19:40:54.682Z,10.10
2018-02-10T19:43:22.987Z,11.10
2018-02-10T19:45:51.298Z,8.80
2018-02-10T19:48:19.619Z,11.53
2018-02-10T19:50:50.928Z,12.57
2018-02-10T19:53:20.334Z,10.87
2018-02-10T19:55:48.818Z,9.90
2018-02-10T19:58:17.190Z,9.13
2018-02-10T20:00:45.645Z,8.82
2018-02-10T20:03:14.178Z,10.53
2018-02-10T20:05:42.522Z,11.03
2018-02-10T20:08:10.849Z,11.10
2018-02-10T20:10:39.553Z,12.57
2018-02-10T20:13:08.032Z,9.57
2018-02-10T20:15:36.417Z,11.85
2018-02-10T20:18:04.742Z,12.40
2018-02-10T20:20:33.202Z,10.80
2018-02-10T20:23:01.535Z,11.10
2018-02-10T20:25:29.905Z,11.57
2018-02-10T20:27:58.311Z,9.50
2018-02-10T20:30:26.736Z,10.93
2018-02-10T20:32:57.182Z,11.25
2018-02-10T20:35:25.552Z,12.48
2018-02-10T20:37:53.902Z,10.70
2018-02-10T20:40:36.373Z,9.70
2018-02-10T20:43:04.734Z,12.00
2018-02-10T20:45:35.240Z,13.00
2018-02-10T20:48:09.175Z,11.55
2018-02-10T20:50:44.443Z,10.57
2018-02-10T20:53:13.087Z,12.07
2018-02-10T20:55:41.563Z,10.23
2018-02-10T20:58:09.922Z,12.02
2018-02-10T21:00:38.254Z,11.18
2018-02-10T21:03:06.734Z,11.00
2018-02-10T21:05:35.036Z,11.20
2018-02-10T21:08:03.422Z,10.93
2018-02-10T21:10:31.780Z,12.60
2018-02-10T21:13:00.180Z,12.07
2018-02-10T21:15:28.502Z,10.00
2018-02-10T21:17:56.842Z,11.60
2018-02-10T21:20:25.138Z,11.00
2018-02-10T21:22:53.887Z,11.07
2018-02-10T21:25:22.207Z,10.52
2018-02-10T21:27:50.604Z,11.73
2018-02-10T21:30:18.952Z,10.90
2018-02-10T21:32:47.244Z,12.70
2018-02-10T21:35:15.629Z,9.73
2018-02-10T21:37:44.897Z,9.87
2018-02-10T21:40:13.253Z,11.00
2018-02-10T21:42:41.618Z,12.20
2018-02-10T21:45:09.938Z,13.13
2018-02-10T21:47:38.292Z,10.77
2018-02-10T21:50:06.632Z,10.10
2018-02-10T21:52:34.968Z,11.38
2018-02-10T21:55:03.300Z,11.82
2018-02-10T21:57:31.705Z,8.60
2018-02-10T22:00:00.105Z,10.93
2018-02-10T22:02:28.459Z,8.70
2018-02-10T22:04:56.881Z,9.10
2018-02-10T22:07:25.303Z,10.10
2018-02-10T22:09:53.655Z,7.82
2018-02-10T22:12:22.112Z,8.93
2018-02-10T22:14:51.387Z,9.25
2018-02-10T22:17:20.664Z,7.97
2018-02-10T22:19:48.969Z,8.40
2018-02-10T22:22:17.337Z,10.32
2018-02-10T22:24:45.736Z,10.77
2018-02-10T22:27:14.136Z,10.40
2018-02-10T22:29:42.559Z,8.38
2018-02-10T22:32:10.930Z,8.98
2018-02-10T22:34:40.182Z,7.90
2018-02-10T22:37:08.479Z,8.70
2018-02-10T22:39:36.924Z,8.07
2018-02-10T22:42:06.104Z,8.73
2018-02-10T22:44:34.420Z,10.00
2018-02-10T22:47:02.872Z,8.20
2018-02-10T22:49:32.279Z,9.90
2018-02-10T22:52:00.840Z,7.95
2018-02-10T22:54:30.156Z,11.23
2018-02-10T22:56:58.540Z,9.00
2018-02-10T22:59:26.866Z,9.52
2018-02-10T23:01:55.197Z,8.68
2018-02-10T23:04:23.614Z,8.07
2018-02-10T23:06:52.019Z,8.50
2018-02-10T23:09:20.303Z,8.57
2018-02-10T23:11:48.794Z,7.55
2018-02-10T23:14:17.265Z,8.10
2018-02-10T23:16:45.626Z,7.50
2018-02-10T23:19:14.031Z,6.20
2018-02-10T23:21:42.504Z,11.12
2018-02-10T23:24:10.813Z,8.43
2018-02-10T23:26:39.119Z,6.62
2018-02-10T23:29:07.563Z,10.55
2018-02-10T23:31:36.024Z,7.90
2018-02-10T23:34:04.362Z,6.50
2018-02-10T23:36:32.754Z,6.37
2018-02-10T23:39:01.160Z,5.30
2018-02-10T23:41:29.540Z,7.37
2018-02-10T23:43:58.896Z,10.10
2018-02-10T23:46:27.213Z,8.02
2018-02-10T23:48:55.530Z,7.35
2018-02-10T23:51:23.850Z,9.52
2018-02-10T23:53:52.183Z,7.78
2018-02-10T23:56:20.678Z,5.50
2018-02-10T23:58:49.099Z,7.80
